Time;durP1;ratioP1;P1;durP2;ratioP2;P2;SDS_P1;SDS_P2;PMS_P1;PMS_P2;Temp;Humidity;BMP_temperature;BMP_pressure;BME280_temperature;BME280_humidity;BME280_pressure;Samples;Min_cycle;Max_cycle;Signal;HPM_P1;HPM_P2
2024/01/18 00:00:33;;;;;;;3.30;3.00;;;18.40;35.10;;;;;;5024594;28;20264;-67
2024/01/18 00:02:59;;;;;;;2.93;2.73;;;18.40;35.10;;;;;;5018280;28;20627;-67
2024/01/18 00:05:25;;;;;;;3.00;2.80;;;18.40;35.10;;;;;;5024685;28;20459;-67
2024/01/18 00:07:50;;;;;;;3.07;2.87;;;18.40;35.10;;;;;;5019984;28;20233;-67
2024/01/18 00:10:16;;;;;;;2.63;2.53;;;18.40;35.00;;;;;;5022916;28;20804;-67
2024/01/18 00:12:42;;;;;;;2.80;2.70;;;18.40;35.00;;;;;;5023272;28;20574;-68
2024/01/18 00:15:08;;;;;;;2.40;2.30;;;18.40;35.00;;;;;;5029222;28;20219;-67
2024/01/18 00:17:34;;;;;;;2.60;2.50;;;18.40;35.00;;;;;;5029240;28;20511;-68
2024/01/18 00:19:59;;;;;;;2.73;2.53;;;18.40;35.10;;;;;;5032716;28;20929;-68
2024/01/18 00:22:25;;;;;;;3.50;2.80;;;18.40;35.00;;;;;;5029105;28;20839;-68
2024/01/18 00:24:50;;;;;;;2.60;2.47;;;18.40;35.00;;;;;;5033771;28;20221;-68
2024/01/18 00:27:16;;;;;;;2.40;2.30;;;18.40;35.00;;;;;;5034139;28;20223;-68
2024/01/18 00:29:42;;;;;;;2.67;2.57;;;18.40;35.10;;;;;;5032838;28;20665;-68
2024/01/18 00:32:08;;;;;;;2.43;2.23;;;18.40;35.10;;;;;;5025254;28;20982;-68
2024/01/18 00:34:33;;;;;;;2.60;2.40;;;18.40;35.10;;;;;;5020087;28;20303;-68
2024/01/18 00:36:59;;;;;;;3.33;2.90;;;18.40;35.10;;;;;;5017203;28;20276;-67
2024/01/18 00:39:24;;;;;;;2.97;2.70;;;18.40;35.10;;;;;;5022837;28;20712;-68
2024/01/18 00:41:50;;;;;;;2.60;2.40;;;18.40;35.00;;;;;;5019962;28;20223;-68
2024/01/18 00:44:16;;;;;;;3.87;3.00;;;18.40;35.00;;;;;;5022913;28;20304;-67
2024/01/18 00:46:42;;;;;;;2.77;2.57;;;18.40;35.10;;;;;;5026499;28;20234;-67
2024/01/18 00:49:07;;;;;;;2.43;2.33;;;18.40;35.10;;;;;;5026902;28;20436;-67
2024/01/18 00:51:33;;;;;;;2.80;2.60;;;18.40;35.00;;;;;;5021202;28;20305;-67
2024/01/18 00:53:58;;;;;;;2.73;2.60;;;18.40;35.00;;;;;;5020437;28;20242;-68
2024/01/18 00:56:24;;;;;;;2.60;2.50;;;18.40;35.00;;;;;;5022029;28;20214;-67
2024/01/18 00:58:50;;;;;;;4.50;2.70;;;18.40;35.00;;;;;;5033499;28;20241;-67
2024/01/18 01:01:18;;;;;;;2.50;2.30;;;18.40;35.00;;;;;;5022885;28;20246;-67
2024/01/18 01:03:44;;;;;;;2.40;2.30;;;18.40;35.00;;;;;;5025628;28;20245;-68
2024/01/18 01:06:10;;;;;;;2.50;2.30;;;18.40;35.00;;;;;;5020178;28;20403;-68
2024/01/18 01:08:36;;;;;;;3.33;3.07;;;18.40;35.10;;;;;;5023014;28;20574;-67
2024/01/18 01:11:05;;;;;;;2.67;2.47;;;18.40;35.00;;;;;;5020443;28;20434;-67
2024/01/18 01:13:32;;;;;;;2.53;2.33;;;18.40;35.00;;;;;;5027797;28;20688;-67
2024/01/18 01:15:57;;;;;;;2.33;2.23;;;18.40;35.00;;;;;;5013990;28;20474;-67
2024/01/18 01:18:23;;;;;;;2.67;2.47;;;18.40;35.00;;;;;;5026407;28;20989;-67
2024/01/18 01:20:48;;;;;;;2.90;2.50;;;18.40;35.00;;;;;;5020641;28;20222;-67
2024/01/18 01:23:14;;;;;;;3.70;2.20;;;18.40;35.00;;;;;;5028181;28;20305;-67
2024/01/18 01:25:40;;;;;;;2.57;2.37;;;18.40;35.00;;;;;;5016673;28;20233;-67
2024/01/18 01:28:06;;;;;;;2.73;2.53;;;18.40;35.00;;;;;;5018823;28;20253;-67
2024/01/18 01:30:32;;;;;;;2.37;2.27;;;18.40;35.00;;;;;;5019878;28;20333;-67
2024/01/18 01:32:57;;;;;;;2.60;2.50;;;18.40;35.00;;;;;;5020551;28;20464;-66
2024/01/18 01:35:23;;;;;;;2.53;2.40;;;18.40;35.00;;;;;;5017157;28;20249;-67
2024/01/18 01:37:49;;;;;;;2.83;2.43;;;18.40;35.00;;;;;;5013855;28;20253;-67
2024/01/18 01:40:14;;;;;;;3.03;2.73;;;18.40;35.00;;;;;;5018800;28;20760;-67
2024/01/18 01:42:40;;;;;;;3.00;2.80;;;18.30;34.90;;;;;;5018468;28;20230;-67
2024/01/18 01:45:06;;;;;;;2.10;2.00;;;18.40;35.00;;;;;;5033831;28;20348;-67
2024/01/18 01:47:32;;;;;;;2.70;2.43;;;18.40;35.00;;;;;;5034175;28;20219;-67
2024/01/18 01:49:58;;;;;;;2.70;2.50;;;18.30;34.90;;;;;;5022135;28;20450;-68
2024/01/18 01:52:25;;;;;;;2.63;2.53;;;18.40;35.00;;;;;;5020063;28;20317;-68
2024/01/18 01:54:51;;;;;;;2.63;2.47;;;18.30;34.90;;;;;;5023862;28;20433;-68
2024/01/18 01:57:19;;;;;;;2.60;2.50;;;18.40;35.00;;;;;;5023892;28;20430;-68
2024/01/18 01:59:45;;;;;;;2.77;2.60;;;18.40;35.00;;;;;;5024243;28;20234;-68
2024/01/18 02:02:12;;;;;;;2.87;2.67;;;18.40;35.10;;;;;;5021468;28;20851;-68
2024/01/18 02:04:37;;;;;;;2.80;2.60;;;18.40;35.10;;;;;;5029180;28;20280;-68
2024/01/18 02:07:04;;;;;;;2.50;2.30;;;18.30;34.90;;;;;;5019969;28;20467;-68
2024/01/18 02:09:30;;;;;;;3.20;2.70;;;18.40;35.00;;;;;;5026338;28;20223;-68
2024/01/18 02:11:55;;;;;;;3.07;2.70;;;18.40;35.00;;;;;;5022570;28;20460;-68
2024/01/18 02:14:21;;;;;;;2.80;2.60;;;18.30;34.90;;;;;;5030646;28;20229;-68
2024/01/18 02:16:47;;;;;;;2.80;2.60;;;18.30;35.00;;;;;;5018789;28;20583;-68
2024/01/18 02:19:13;;;;;;;2.03;1.93;;;18.30;35.00;;;;;;5021486;28;20280;-68
2024/01/18 02:21:39;;;;;;;4.97;2.60;;;18.30;34.90;;;;;;5039018;28;20222;-68
2024/01/18 02:24:20;;;;;;;2.50;2.30;;;18.30;34.90;;;;;;5024195;28;20250;-67
2024/01/18 02:26:45;;;;;;;2.80;2.70;;;18.30;34.90;;;;;;5027970;28;20444;-68
2024/01/18 02:29:11;;;;;;;2.47;2.37;;;18.30;34.90;;;;;;5035161;28;20433;-68
2024/01/18 02:31:37;;;;;;;3.07;2.87;;;18.30;34.90;;;;;;5038997;28;20237;-68
2024/01/18 02:34:09;;;;;;;3.20;3.00;;;18.30;34.90;;;;;;5030814;28;20696;-68
2024/01/18 02:36:35;;;;;;;2.40;2.20;;;18.30;34.90;;;;;;5023218;28;20231;-68
2024/01/18 02:39:01;;;;;;;2.67;2.57;;;18.30;34.90;;;;;;5028072;28;20788;-67
2024/01/18 02:41:27;;;;;;;2.70;2.50;;;18.30;34.90;;;;;;5032608;28;20335;-67
2024/01/18 02:43:53;;;;;;;2.30;2.20;;;18.30;34.90;;;;;;5025369;28;20873;-68
2024/01/18 02:46:18;;;;;;;2.73;2.53;;;18.30;34.90;;;;;;5025178;28;20662;-68
2024/01/18 02:48:44;;;;;;;2.67;2.47;;;18.30;34.90;;;;;;5021105;28;20280;-68
2024/01/18 02:51:10;;;;;;;2.83;2.50;;;18.30;34.90;;;;;;5022892;28;20236;-67
2024/01/18 02:53:35;;;;;;;2.60;2.50;;;18.30;34.90;;;;;;5028829;28;20470;-67
2024/01/18 02:56:01;;;;;;;2.70;2.50;;;18.30;34.80;;;;;;5027746;28;20571;-67
2024/01/18 02:58:27;;;;;;;2.30;2.20;;;18.30;34.80;;;;;;5037072;28;20237;-66
2024/01/18 03:00:52;;;;;;;2.80;2.60;;;18.40;34.90;;;;;;5036383;28;20237;-68
2024/01/18 03:03:19;;;;;;;2.93;2.73;;;18.30;34.80;;;;;;5031152;28;20235;-68
2024/01/18 03:05:45;;;;;;;2.33;2.13;;;18.30;34.80;;;;;;5027321;28;20222;-68
2024/01/18 03:08:11;;;;;;;3.23;3.00;;;18.30;34.80;;;;;;5033664;28;20559;-68
2024/01/18 03:10:36;;;;;;;2.50;2.40;;;18.30;34.90;;;;;;5036504;28;20231;-68
2024/01/18 03:13:02;;;;;;;2.33;2.23;;;18.30;34.80;;;;;;5031649;28;20218;-69
2024/01/18 03:15:28;;;;;;;2.80;2.60;;;18.30;34.90;;;;;;5022346;28;21179;-69
2024/01/18 03:17:53;;;;;;;2.63;2.43;;;18.30;34.90;;;;;;5036917;28;20305;-69
2024/01/18 03:20:19;;;;;;;2.20;2.10;;;18.30;34.90;;;;;;5037733;28;20226;-69
2024/01/18 03:22:45;;;;;;;2.40;2.30;;;18.30;34.90;;;;;;5024942;28;20234;-69
2024/01/18 03:25:12;;;;;;;3.30;3.10;;;18.30;34.90;;;;;;5017556;28;20235;-69
2024/01/18 03:27:38;;;;;;;2.77;2.57;;;18.30;34.90;;;;;;5031692;28;20490;-69
2024/01/18 03:30:04;;;;;;;2.80;2.60;;;18.40;35.00;;;;;;5033594;28;20512;-69
2024/01/18 03:32:30;;;;;;;2.50;2.40;;;18.40;35.00;;;;;;5028176;28;20487;-69
2024/01/18 03:34:55;;;;;;;2.30;2.20;;;18.30;34.80;;;;;;5022420;28;20476;-69
2024/01/18 03:37:21;;;;;;;2.63;2.50;;;18.30;34.90;;;;;;5034468;28;20250;-69
2024/01/18 03:39:46;;;;;;;2.63;2.50;;;18.30;34.80;;;;;;5017641;28;20266;-69
2024/01/18 03:42:12;;;;;;;2.50;2.40;;;18.30;34.90;;;;;;5024841;28;20226;-69
2024/01/18 03:44:38;;;;;;;2.60;2.40;;;18.30;34.90;;;;;;5037175;28;20252;-69
2024/01/18 03:47:04;;;;;;;2.60;2.50;;;18.30;35.70;;;;;;5016043;28;20394;-69
2024/01/18 03:49:29;;;;;;;2.63;2.43;;;18.30;34.80;;;;;;5024009;28;20234;-69
2024/01/18 03:51:55;;;;;;;3.00;2.80;;;18.30;34.80;;;;;;5037560;28;20463;-69
2024/01/18 03:54:20;;;;;;;2.60;2.40;;;18.30;34.80;;;;;;5019587;28;20230;-69
2024/01/18 03:56:47;;;;;;;2.83;2.63;;;18.30;34.80;;;;;;5021620;28;20231;-69
2024/01/18 03:59:15;;;;;;;2.80;2.60;;;18.30;34.80;;;;;;5026500;28;20238;-68
2024/01/18 04:01:41;;;;;;;2.80;2.60;;;18.30;34.80;;;;;;5018524;28;20572;-67
2024/01/18 04:04:08;;;;;;;2.90;2.70;;;18.30;34.90;;;;;;5033055;28;20459;-68
2024/01/18 04:06:33;;;;;;;2.50;2.30;;;18.30;34.80;;;;;;5064820;28;20229;-68
2024/01/18 04:08:59;;;;;;;2.60;2.40;;;18.30;34.80;;;;;;5021241;28;20534;-67
2024/01/18 04:11:24;;;;;;;2.73;2.53;;;18.30;34.80;;;;;;5026738;28;20744;-68
2024/01/18 04:13:50;;;;;;;3.20;3.00;;;18.30;34.80;;;;;;5029922;28;20229;-68
2024/01/18 04:16:15;;;;;;;4.50;2.30;;;18.30;34.90;;;;;;5024338;28;20233;-69
2024/01/18 04:18:42;;;;;;;2.80;2.60;;;18.30;34.90;;;;;;5027508;28;20288;-68
2024/01/18 04:21:07;;;;;;;2.60;2.40;;;18.30;34.80;;;;;;5031264;28;20246;-69
2024/01/18 04:23:33;;;;;;;2.80;2.60;;;18.30;34.80;;;;;;5022625;28;20481;-69
2024/01/18 04:25:59;;;;;;;2.90;2.70;;;18.30;34.80;;;;;;5015474;28;20639;-69
2024/01/18 04:28:24;;;;;;;2.47;2.33;;;18.30;34.80;;;;;;5013727;28;20234;-69
2024/01/18 04:30:50;;;;;;;2.70;2.60;;;18.30;34.80;;;;;;5022315;28;20576;-69
2024/01/18 04:33:18;;;;;;;3.07;2.87;;;18.30;34.80;;;;;;5028171;28;20313;-69
2024/01/18 04:35:44;;;;;;;2.63;2.43;;;18.30;34.80;;;;;;5020599;28;20325;-69
2024/01/18 04:38:09;;;;;;;3.00;2.80;;;18.30;34.80;;;;;;5030074;28;20568;-69
2024/01/18 04:40:35;;;;;;;3.10;2.90;;;18.30;34.80;;;;;;5025678;28;20219;-69
2024/01/18 04:43:01;;;;;;;2.40;2.23;;;18.30;34.80;;;;;;5028380;28;20684;-69
2024/01/18 04:45:26;;;;;;;2.73;2.63;;;18.30;35.60;;;;;;5021178;28;20222;-69
2024/01/18 04:47:53;;;;;;;2.90;2.70;;;18.30;34.80;;;;;;5024277;28;20226;-69
2024/01/18 04:50:24;;;;;;;3.43;3.23;;;18.30;34.80;;;;;;5030429;28;20226;-69
2024/01/18 04:52:52;;;;;;;2.63;2.43;;;18.30;34.80;;;;;;5016942;28;20461;-68
2024/01/18 04:55:18;;;;;;;3.07;2.87;;;18.30;34.80;;;;;;5011545;28;20537;-68
2024/01/18 04:57:44;;;;;;;2.30;2.20;;;18.30;34.80;;;;;;5036350;28;20835;-68
2024/01/18 05:00:11;;;;;;;2.20;2.10;;;18.30;34.80;;;;;;5033061;28;20229;-68
2024/01/18 05:02:40;;;;;;;2.47;2.27;;;18.30;34.80;;;;;;5034360;28;20808;-69
2024/01/18 05:05:08;;;;;;;2.77;2.57;;;18.30;34.70;;;;;;5022544;28;20544;-68
2024/01/18 05:07:34;;;;;;;2.67;2.57;;;18.30;34.70;;;;;;5014116;28;20917;-68
2024/01/18 05:10:00;;;;;;;3.10;2.90;;;18.30;34.70;;;;;;5019807;28;20458;-68
2024/01/18 05:12:25;;;;;;;2.87;2.67;;;18.40;34.70;;;;;;5022170;28;20430;-69
2024/01/18 05:14:51;;;;;;;3.00;2.03;;;18.30;34.60;;;;;;5009338;28;20222;-69
2024/01/18 05:17:17;;;;;;;2.63;2.43;;;18.40;34.70;;;;;;5011293;28;20603;-70
2024/01/18 05:19:45;;;;;;;2.77;2.57;;;18.40;34.70;;;;;;5017691;28;20226;-69
2024/01/18 05:22:11;;;;;;;2.30;2.20;;;18.40;34.70;;;;;;5026173;28;20308;-68
2024/01/18 05:24:36;;;;;;;2.50;2.40;;;18.40;34.70;;;;;;5050510;28;20465;-68
2024/01/18 05:27:02;;;;;;;2.70;2.50;;;18.40;34.70;;;;;;5018240;28;20740;-68
2024/01/18 05:29:27;;;;;;;2.43;2.23;;;18.40;34.70;;;;;;5052366;28;20221;-68
2024/01/18 05:31:53;;;;;;;2.13;2.03;;;18.40;34.70;;;;;;5014382;28;20219;-69
2024/01/18 05:34:19;;;;;;;2.50;2.30;;;18.40;34.70;;;;;;5009268;28;20772;-69
2024/01/18 05:36:45;;;;;;;3.33;3.13;;;18.40;34.60;;;;;;5011265;28;20226;-73
2024/01/18 05:39:11;;;;;;;2.27;2.17;;;18.40;34.70;;;;;;5022582;28;20225;-69
2024/01/18 05:41:36;;;;;;;2.63;2.47;;;18.40;34.70;;;;;;5019533;28;20451;-68
2024/01/18 05:44:02;;;;;;;2.33;2.23;;;18.40;34.70;;;;;;5024486;28;20291;-68
2024/01/18 05:46:28;;;;;;;3.43;2.40;;;18.40;34.60;;;;;;5022424;28;20637;-68
2024/01/18 05:48:53;;;;;;;2.67;2.50;;;18.40;34.70;;;;;;5031552;28;20865;-67
2024/01/18 05:51:19;;;;;;;2.50;2.30;;;18.40;34.60;;;;;;5019172;28;20230;-67
2024/01/18 05:53:45;;;;;;;2.43;2.33;;;18.40;34.70;;;;;;5030609;28;20256;-69
2024/01/18 05:56:11;;;;;;;3.27;2.50;;;18.40;34.70;;;;;;5028990;28;20461;-69
2024/01/18 05:58:36;;;;;;;2.93;2.77;;;18.40;34.70;;;;;;5018899;28;20278;-69
2024/01/18 06:01:02;;;;;;;2.80;2.60;;;18.40;34.70;;;;;;5033341;28;20239;-70
2024/01/18 06:03:27;;;;;;;2.67;2.47;;;18.40;34.70;;;;;;5029106;28;20229;-68
2024/01/18 06:05:54;;;;;;;2.63;2.53;;;18.40;34.70;;;;;;5023329;28;20249;-67
2024/01/18 06:08:19;;;;;;;2.83;2.60;;;18.40;34.70;;;;;;5030805;28;20249;-70
2024/01/18 06:10:45;;;;;;;3.30;2.53;;;18.40;34.70;;;;;;5037826;28;20455;-68
2024/01/18 06:13:10;;;;;;;2.80;2.60;;;18.40;34.70;;;;;;5023816;28;20222;-67
2024/01/18 06:15:36;;;;;;;2.97;2.77;;;18.40;34.70;;;;;;5028783;28;20218;-67
2024/01/18 06:18:03;;;;;;;2.80;2.60;;;18.40;34.70;;;;;;5036222;28;20249;-67
2024/01/18 06:20:32;;;;;;;2.70;2.50;;;18.40;34.70;;;;;;5025861;28;20449;-67
2024/01/18 06:22:58;;;;;;;3.80;2.50;;;18.40;34.70;;;;;;5023928;28;20467;-67
2024/01/18 06:25:23;;;;;;;2.40;2.20;;;18.50;34.70;;;;;;5014653;28;20773;-74
2024/01/18 06:27:50;;;;;;;3.97;2.57;;;18.50;34.70;;;;;;5015488;28;20214;-68
2024/01/18 06:30:18;;;;;;;2.40;2.30;;;18.50;34.80;;;;;;5020913;28;20242;-69
2024/01/18 06:32:44;;;;;;;2.40;2.20;;;18.40;34.70;;;;;;5023071;28;20752;-69
2024/01/18 06:35:10;;;;;;;3.30;2.60;;;18.50;34.70;;;;;;5022611;28;20466;-69
2024/01/18 06:37:38;;;;;;;4.63;2.57;;;18.50;34.80;;;;;;5027769;28;20578;-68
2024/01/18 06:40:04;;;;;;;2.70;2.50;;;18.50;34.70;;;;;;5026871;28;20449;-69
2024/01/18 06:42:31;;;;;;;2.70;2.50;;;18.50;34.70;;;;;;5036832;28;20794;-71
2024/01/18 06:44:57;;;;;;;5.10;2.37;;;18.50;34.70;;;;;;5040481;28;20430;-71
2024/01/18 06:47:22;;;;;;;3.20;3.00;;;18.50;34.70;;;;;;5020821;28;20438;-70
2024/01/18 06:49:48;;;;;;;2.43;2.33;;;18.50;34.80;;;;;;5027437;28;20678;-70
2024/01/18 06:52:13;;;;;;;2.70;2.50;;;18.50;34.70;;;;;;5024231;28;20242;-70
2024/01/18 06:54:42;;;;;;;2.67;2.47;;;18.50;34.70;;;;;;5029292;28;20230;-70
2024/01/18 06:57:08;;;;;;;2.70;2.53;;;18.50;34.70;;;;;;5036765;28;20241;-69
2024/01/18 06:59:33;;;;;;;3.00;2.80;;;18.50;34.70;;;;;;5027642;28;20684;-70
2024/01/18 07:01:59;;;;;;;4.60;3.03;;;18.50;34.70;;;;;;5027277;28;20262;-70
2024/01/18 07:04:25;;;;;;;2.93;2.73;;;18.50;34.70;;;;;;5029147;28;20572;-70
2024/01/18 07:06:51;;;;;;;2.67;2.47;;;18.50;34.70;;;;;;5024463;28;20223;-69
2024/01/18 07:09:16;;;;;;;2.80;2.60;;;18.50;34.60;;;;;;5027402;28;20497;-70
2024/01/18 07:11:42;;;;;;;2.43;2.23;;;18.50;34.60;;;;;;5032015;28;20300;-71
2024/01/18 07:14:07;;;;;;;2.37;2.27;;;18.50;34.70;;;;;;5028451;28;20321;-71
2024/01/18 07:16:33;;;;;;;2.67;2.47;;;18.50;34.60;;;;;;5020782;28;20230;-71
2024/01/18 07:18:58;;;;;;;3.23;3.03;;;18.50;34.60;;;;;;5036455;28;20639;-71
2024/01/18 07:21:24;;;;;;;3.10;2.80;;;18.50;34.70;;;;;;5034194;28;20658;-70
2024/01/18 07:23:49;;;;;;;3.00;2.80;;;18.50;34.60;;;;;;5070023;28;20381;-70
2024/01/18 07:26:15;;;;;;;2.77;2.57;;;18.50;34.60;;;;;;5036802;28;20558;-70
2024/01/18 07:28:40;;;;;;;5.13;2.70;;;18.50;34.60;;;;;;5034418;28;20831;-70
2024/01/18 07:31:06;;;;;;;2.90;2.70;;;18.50;34.60;;;;;;5027708;28;20735;-70
2024/01/18 07:33:31;;;;;;;2.37;2.20;;;18.50;34.60;;;;;;5019815;28;20297;-70
2024/01/18 07:35:57;;;;;;;2.30;2.20;;;18.50;34.60;;;;;;5027573;28;20234;-70
2024/01/18 07:38:24;;;;;;;2.77;2.57;;;18.50;34.50;;;;;;5026253;28;20264;-71
2024/01/18 07:40:49;;;;;;;2.97;2.47;;;18.50;34.50;;;;;;5015498;28;20953;-70
2024/01/18 07:43:15;;;;;;;2.73;2.50;;;18.50;34.50;;;;;;5035075;28;20430;-69
2024/01/18 07:45:41;;;;;;;2.80;2.50;;;18.50;34.50;;;;;;5023799;28;20287;-71
2024/01/18 07:48:07;;;;;;;2.50;2.40;;;18.50;34.50;;;;;;5033982;28;20225;-70
2024/01/18 07:50:32;;;;;;;2.67;2.47;;;18.50;34.50;;;;;;5030135;28;20214;-68
2024/01/18 07:52:58;;;;;;;2.63;2.43;;;18.50;34.50;;;;;;5031363;28;21813;-68
2024/01/18 07:55:25;;;;;;;2.80;2.60;;;18.50;34.50;;;;;;5036129;28;20908;-68
2024/01/18 07:57:50;;;;;;;2.50;2.37;;;18.50;34.50;;;;;;5038974;28;20659;-68
2024/01/18 08:00:17;;;;;;;2.90;2.70;;;18.50;34.50;;;;;;5024970;28;20494;-68
2024/01/18 08:02:42;;;;;;;2.67;2.53;;;18.50;34.50;;;;;;5017505;28;20231;-68
2024/01/18 08:05:08;;;;;;;2.63;2.43;;;18.50;34.50;;;;;;5022213;28;20464;-68
2024/01/18 08:07:33;;;;;;;3.63;2.60;;;18.50;34.50;;;;;;5017915;28;20218;-68
2024/01/18 08:09:59;;;;;;;3.10;2.90;;;18.50;34.50;;;;;;5019960;28;20257;-68
2024/01/18 08:12:25;;;;;;;2.70;2.50;;;18.50;34.50;;;;;;5020266;28;20215;-67
2024/01/18 08:14:50;;;;;;;2.53;2.43;;;18.50;34.50;;;;;;5023548;28;20210;-68
2024/01/18 08:17:16;;;;;;;3.17;2.87;;;18.50;34.50;;;;;;5028290;28;20206;-68
2024/01/18 08:19:42;;;;;;;2.80;2.60;;;18.50;34.50;;;;;;5025475;28;20725;-69
2024/01/18 08:22:07;;;;;;;2.40;2.30;;;18.50;34.50;;;;;;5019436;28;20701;-69
2024/01/18 08:24:33;;;;;;;3.20;3.00;;;18.40;34.40;;;;;;5023915;28;20234;-68
2024/01/18 08:26:59;;;;;;;3.53;3.33;;;18.40;34.40;;;;;;5037873;28;20643;-68
2024/01/18 08:29:26;;;;;;;3.10;2.90;;;18.50;34.40;;;;;;5024583;28;20325;-68
2024/01/18 08:31:52;;;;;;;3.47;3.17;;;18.50;34.50;;;;;;5021746;28;20210;-68
2024/01/18 08:34:18;;;;;;;2.90;2.70;;;18.40;34.30;;;;;;5024928;28;20449;-68
2024/01/18 08:36:43;;;;;;;3.30;3.10;;;18.40;34.30;;;;;;5015246;28;20689;-68
2024/01/18 08:39:09;;;;;;;4.83;2.83;;;18.40;34.40;;;;;;5020091;28;20720;-68
2024/01/18 08:41:34;;;;;;;2.63;2.53;;;18.40;34.30;;;;;;5021803;28;20218;-67
2024/01/18 08:44:00;;;;;;;2.87;2.60;;;18.40;34.50;;;;;;5030096;28;20592;-68
2024/01/18 08:46:26;;;;;;;2.87;2.77;;;18.40;34.30;;;;;;5022715;28;20752;-68
2024/01/18 08:48:52;;;;;;;4.30;2.80;;;18.40;34.30;;;;;;5027354;28;20450;-67
2024/01/18 08:51:18;;;;;;;3.13;2.90;;;18.40;34.30;;;;;;5015400;28;20226;-68
2024/01/18 08:53:44;;;;;;;3.20;3.00;;;18.40;34.30;;;;;;5011894;28;20497;-68
2024/01/18 08:56:10;;;;;;;3.00;2.80;;;18.40;34.20;;;;;;5021115;28;20225;-68
2024/01/18 08:58:39;;;;;;;2.60;2.40;;;18.40;34.30;;;;;;5027215;28;20930;-68
2024/01/18 09:01:05;;;;;;;2.73;2.53;;;18.40;34.20;;;;;;5025250;28;20764;-68
2024/01/18 09:03:30;;;;;;;3.20;3.00;;;18.40;34.20;;;;;;5040323;28;20451;-68
2024/01/18 09:05:56;;;;;;;3.17;2.97;;;18.40;34.30;;;;;;5023004;28;20224;-68
2024/01/18 09:08:22;;;;;;;2.33;2.23;;;18.40;34.20;;;;;;5025037;28;20305;-68
2024/01/18 09:10:48;;;;;;;2.60;2.40;;;18.40;34.20;;;;;;5028342;28;20345;-68
2024/01/18 09:13:14;;;;;;;2.77;2.50;;;18.40;34.20;;;;;;5024913;28;20230;-68
2024/01/18 09:15:41;;;;;;;2.67;2.57;;;18.40;34.30;;;;;;5016840;28;20419;-69
2024/01/18 09:18:07;;;;;;;2.80;2.60;;;18.40;34.20;;;;;;5036157;28;20242;-69
2024/01/18 09:20:33;;;;;;;2.87;2.67;;;18.40;34.30;;;;;;5032230;28;20487;-68
2024/01/18 09:22:58;;;;;;;2.73;2.53;;;18.40;34.20;;;;;;5046492;28;20284;-68
2024/01/18 09:25:24;;;;;;;2.57;2.37;;;18.40;34.30;;;;;;5030933;28;20682;-68
2024/01/18 09:27:50;;;;;;;2.90;2.70;;;18.40;34.20;;;;;;5019730;28;20246;-68
2024/01/18 09:30:15;;;;;;;2.67;2.57;;;18.40;34.20;;;;;;5025573;28;20294;-68
2024/01/18 09:32:41;;;;;;;2.87;2.67;;;18.40;34.20;;;;;;5026214;28;20239;-68
2024/01/18 09:35:07;;;;;;;3.00;2.80;;;18.40;34.20;;;;;;5031967;28;20222;-68
2024/01/18 09:37:32;;;;;;;2.43;2.33;;;18.40;34.20;;;;;;5024356;28;20750;-68
2024/01/18 09:39:58;;;;;;;2.80;2.60;;;18.40;34.20;;;;;;5020911;28;20219;-68
2024/01/18 09:42:31;;;;;;;5.10;2.70;;;18.40;34.20;;;;;;5015140;28;20224;-68
2024/01/18 09:45:07;;;;;;;3.00;2.80;;;18.40;34.20;;;;;;5023203;28;20226;-68
2024/01/18 09:47:33;;;;;;;2.67;2.47;;;18.40;34.20;;;;;;5030612;28;20443;-68
2024/01/18 09:49:59;;;;;;;3.10;2.90;;;18.40;34.20;;;;;;5025885;28;20959;-68
2024/01/18 09:52:25;;;;;;;2.80;2.60;;;18.40;34.20;;;;;;5021477;28;20214;-68
2024/01/18 09:54:50;;;;;;;3.00;2.80;;;18.40;34.20;;;;;;5029897;28;20852;-68
2024/01/18 09:57:30;;;;;;;2.80;2.47;;;18.40;34.20;;;;;;5025746;28;20218;-69
2024/01/18 09:59:58;;;;;;;2.80;2.60;;;18.40;34.20;;;;;;5038040;28;20236;-69
2024/01/18 10:02:25;;;;;;;2.60;2.50;;;18.40;34.20;;;;;;5036964;28;20458;-69
2024/01/18 10:04:52;;;;;;;2.80;2.60;;;18.40;34.20;;;;;;5034393;28;20430;-69
2024/01/18 10:07:17;;;;;;;2.80;2.60;;;18.40;34.20;;;;;;5025544;28;20983;-68
2024/01/18 10:09:44;;;;;;;3.10;2.90;;;18.40;34.20;;;;;;5033967;28;20973;-70
2024/01/18 10:12:10;;;;;;;2.60;2.40;;;18.40;34.20;;;;;;5041990;28;20221;-67
2024/01/18 10:14:43;;;;;;;3.60;2.90;;;18.40;34.20;;;;;;5043618;28;20443;-67
2024/01/18 10:17:18;;;;;;;2.57;2.43;;;18.40;34.20;;;;;;5027443;28;20450;-68
2024/01/18 10:19:44;;;;;;;2.83;2.70;;;18.40;34.60;;;;;;5030812;28;20524;-68
2024/01/18 10:22:10;;;;;;;2.77;2.63;;;18.40;34.20;;;;;;5026929;28;20475;-68
2024/01/18 10:24:39;;;;;;;2.37;2.23;;;18.40;34.20;;;;;;5033052;28;20716;-67
2024/01/18 10:27:05;;;;;;;2.70;2.50;;;18.40;34.20;;;;;;5021510;28;20230;-68
2024/01/18 10:29:37;;;;;;;2.27;2.17;;;18.40;34.10;;;;;;5030599;28;21016;-67
2024/01/18 10:32:03;;;;;;;2.60;2.50;;;18.40;34.10;;;;;;5021248;28;20721;-68
2024/01/18 10:34:34;;;;;;;2.70;2.50;;;18.40;34.10;;;;;;5022472;28;20442;-67
2024/01/18 10:36:59;;;;;;;2.80;2.60;;;18.40;34.10;;;;;;5026594;28;20999;-68
2024/01/18 10:39:25;;;;;;;2.37;2.27;;;18.40;34.10;;;;;;5023135;28;20427;-67
2024/01/18 10:41:51;;;;;;;2.50;2.40;;;18.40;34.90;;;;;;5021895;28;20229;-68
2024/01/18 10:44:17;;;;;;;2.57;2.43;;;18.40;34.10;;;;;;5033483;28;20230;-67
2024/01/18 10:46:43;;;;;;;2.53;2.43;;;18.40;34.20;;;;;;5033625;28;20254;-68
2024/01/18 10:49:10;;;;;;;2.30;2.20;;;18.40;34.10;;;;;;5032867;28;20853;-68
2024/01/18 10:51:40;;;;;;;3.07;2.87;;;18.40;34.20;;;;;;5030738;28;20229;-67
2024/01/18 10:54:10;;;;;;;2.30;2.17;;;18.40;34.10;;;;;;5031661;28;20456;-67
2024/01/18 10:56:38;;;;;;;2.20;2.10;;;18.40;34.10;;;;;;5034408;28;20450;-67
2024/01/18 10:59:06;;;;;;;2.50;2.40;;;18.40;34.10;;;;;;5025190;28;20457;-67
2024/01/18 11:01:33;;;;;;;2.63;2.43;;;18.40;34.10;;;;;;5026834;28;20461;-67
2024/01/18 11:03:58;;;;;;;2.70;2.60;;;18.40;34.10;;;;;;5034457;28;20438;-67
2024/01/18 11:06:25;;;;;;;2.47;2.37;;;18.40;34.10;;;;;;5020434;28;21489;-67
2024/01/18 11:08:51;;;;;;;2.63;2.43;;;18.40;34.20;;;;;;5030620;28;20234;-67
2024/01/18 11:11:17;;;;;;;2.40;2.20;;;18.40;34.10;;;;;;5029357;28;20494;-67
2024/01/18 11:13:42;;;;;;;2.40;2.30;;;18.40;34.10;;;;;;5031594;28;20230;-67
2024/01/18 11:16:08;;;;;;;2.17;2.07;;;18.40;34.10;;;;;;5027473;28;20752;-68
2024/01/18 11:18:35;;;;;;;2.80;2.60;;;18.40;34.10;;;;;;5028267;28;20222;-67
2024/01/18 11:21:04;;;;;;;2.80;2.60;;;18.40;34.10;;;;;;5023317;28;20959;-67
2024/01/18 11:23:36;;;;;;;2.27;2.17;;;18.40;34.10;;;;;;5031453;28;20952;-67
2024/01/18 11:26:04;;;;;;;2.17;2.07;;;18.40;34.10;;;;;;5022697;28;20422;-67
2024/01/18 11:28:31;;;;;;;2.37;2.23;;;18.40;34.10;;;;;;5028014;28;20818;-67
2024/01/18 11:30:57;;;;;;;2.97;2.70;;;18.40;34.10;;;;;;5032728;28;20456;-67
2024/01/18 11:33:23;;;;;;;2.43;2.33;;;18.40;34.10;;;;;;5023857;28;20481;-67
2024/01/18 11:35:49;;;;;;;3.47;2.20;;;18.40;34.20;;;;;;5028183;28;20465;-68
2024/01/18 11:38:21;;;;;;;2.20;2.10;;;18.40;34.10;;;;;;5027211;28;20372;-67
2024/01/18 11:40:57;;;;;;;2.40;2.30;;;18.40;34.10;;;;;;5025226;28;20458;-67
2024/01/18 11:43:55;;;;;;;2.47;2.37;;;18.40;34.10;;;;;;5018514;28;21026;-68
2024/01/18 11:46:39;;;;;;;2.40;2.30;;;18.40;34.10;;;;;;5021349;28;20485;-67
2024/01/18 11:49:05;;;;;;;2.13;2.03;;;18.40;34.10;;;;;;5043687;28;20518;-68
2024/01/18 11:51:31;;;;;;;2.00;1.90;;;18.40;34.10;;;;;;5031464;28;20439;-68
2024/01/18 11:54:03;;;;;;;2.00;1.90;;;18.40;34.10;;;;;;5022346;28;20789;-67
2024/01/18 11:56:29;;;;;;;2.37;2.17;;;18.40;34.10;;;;;;5025748;28;20449;-68
2024/01/18 11:58:57;;;;;;;2.10;1.83;;;18.40;34.10;;;;;;5015288;28;20851;-68
2024/01/18 12:01:23;;;;;;;2.10;2.00;;;18.40;34.00;;;;;;5035992;28;20237;-69
2024/01/18 12:03:48;;;;;;;2.17;2.07;;;18.40;34.00;;;;;;5038952;28;20797;-67
2024/01/18 12:06:15;;;;;;;2.00;1.90;;;18.40;34.10;;;;;;5038091;28;20233;-68
2024/01/18 12:08:41;;;;;;;2.10;2.00;;;18.40;34.00;;;;;;5027043;28;20229;-68
2024/01/18 12:11:07;;;;;;;2.43;2.20;;;18.40;34.10;;;;;;5018657;28;20952;-68
2024/01/18 12:13:33;;;;;;;1.90;1.80;;;18.40;34.00;;;;;;5019660;28;20430;-67
2024/01/18 12:15:59;;;;;;;1.80;1.70;;;18.40;34.00;;;;;;5021135;28;20233;-67
2024/01/18 12:18:25;;;;;;;2.07;1.97;;;18.40;34.00;;;;;;5023055;28;20457;-67
2024/01/18 12:20:50;;;;;;;1.97;1.87;;;18.40;34.00;;;;;;5026555;28;20226;-67
2024/01/18 12:23:16;;;;;;;2.30;2.20;;;18.40;34.00;;;;;;5021937;28;20234;-67
2024/01/18 12:25:43;;;;;;;1.83;1.73;;;18.40;34.00;;;;;;5018529;28;20342;-67
2024/01/18 12:28:10;;;;;;;2.00;1.90;;;18.40;34.00;;;;;;5040625;28;20806;-67
2024/01/18 12:30:42;;;;;;;2.10;2.00;;;18.40;34.00;;;;;;5041181;28;20532;-69
2024/01/18 12:33:08;;;;;;;2.00;1.90;;;18.40;34.00;;;;;;5039181;28;20460;-68
2024/01/18 12:35:36;;;;;;;1.70;1.60;;;18.40;34.00;;;;;;5023434;28;20831;-69
2024/01/18 12:38:02;;;;;;;1.87;1.77;;;18.40;34.10;;;;;;5036709;28;20409;-68
2024/01/18 12:40:28;;;;;;;1.83;1.73;;;18.40;34.00;;;;;;5034574;28;20513;-69
2024/01/18 12:43:01;;;;;;;2.00;1.90;;;18.40;34.00;;;;;;5031854;28;20545;-68